Time;durP1;ratioP1;P1;durP2;ratioP2;P2;SDS_P1;SDS_P2;PMS_P1;PMS_P2;Temp;Humidity;BMP_temperature;BMP_pressure;BME280_temperature;BME280_humidity;BME280_pressure;Samples;Min_cycle;Max_cycle;Signal;HPM_P1;HPM_P2
2022/11/20 00:00:53;;;;;;;53.60;33.35;;;-1.70;99.90;;;;;;5070255;28;20051;-66
2022/11/20 00:03:19;;;;;;;57.42;35.72;;;-1.70;99.90;;;;;;5069855;28;20040;-65
2022/11/20 00:05:45;;;;;;;51.80;30.42;;;-1.70;99.90;;;;;;5069945;28;20052;-65
2022/11/20 00:08:11;;;;;;;48.78;32.10;;;-1.60;99.90;;;;;;5069508;28;20393;-65
2022/11/20 00:10:37;;;;;;;58.17;32.83;;;-1.60;99.90;;;;;;5069517;28;20106;-65
2022/11/20 00:13:04;;;;;;;15.40;10.07;;;-1.60;99.90;;;;;;5060246;28;20041;-66
2022/11/20 00:15:29;;;;;;;14.07;7.18;;;-1.50;99.90;;;;;;5069147;28;20040;-65
2022/11/20 00:17:55;;;;;;;50.85;31.17;;;-1.50;99.90;;;;;;5069114;28;20046;-66
2022/11/20 00:20:21;;;;;;;14.75;7.35;;;-1.50;99.90;;;;;;5069235;28;20040;-65
2022/11/20 00:22:47;;;;;;;45.70;29.38;;;-1.40;99.90;;;;;;5069855;28;20496;-66
2022/11/20 00:25:13;;;;;;;49.05;30.90;;;-1.40;99.90;;;;;;5068695;28;20036;-65
2022/11/20 00:27:39;;;;;;;49.90;30.65;;;-1.40;99.90;;;;;;5069985;28;20481;-65
2022/11/20 00:30:05;;;;;;;52.70;31.63;;;-1.30;99.90;;;;;;5064241;28;20421;-65
2022/11/20 00:32:31;;;;;;;9.00;4.45;;;-1.30;99.90;;;;;;5065401;28;20045;-65
2022/11/20 00:34:57;;;;;;;20.85;9.25;;;-1.30;99.90;;;;;;5069280;28;20047;-65
2022/11/20 00:37:22;;;;;;;52.05;32.38;;;-1.20;99.90;;;;;;5069754;28;20109;-66
2022/11/20 00:39:48;;;;;;;49.17;30.92;;;-1.20;99.90;;;;;;5069632;28;20405;-65
2022/11/20 00:42:14;;;;;;;13.63;7.47;;;-1.20;99.90;;;;;;5067586;28;20045;-65
2022/11/20 00:44:39;;;;;;;50.53;30.25;;;-1.10;99.90;;;;;;5069335;28;20048;-65
2022/11/20 00:47:05;;;;;;;53.13;32.75;;;-1.10;99.90;;;;;;5066588;28;20044;-65
2022/11/20 00:49:30;;;;;;;51.75;30.90;;;-1.10;99.90;;;;;;5078548;28;20056;-66
2022/11/20 00:51:56;;;;;;;55.72;33.95;;;-1.10;99.90;;;;;;5068045;28;20047;-65
2022/11/20 00:54:22;;;;;;;54.47;33.42;;;-1.00;99.90;;;;;;5068917;28;20619;-65
2022/11/20 00:56:47;;;;;;;51.97;31.60;;;-1.00;99.90;;;;;;5069351;28;20417;-65
2022/11/20 00:59:13;;;;;;;58.90;32.58;;;-1.00;99.90;;;;;;5068808;28;20025;-65
2022/11/20 01:01:39;;;;;;;52.50;33.22;;;-0.90;99.90;;;;;;5066667;28;20041;-65
2022/11/20 01:04:05;;;;;;;57.30;33.80;;;-0.90;99.90;;;;;;5066968;28;20032;-65
2022/11/20 01:06:34;;;;;;;51.58;32.63;;;-0.90;99.90;;;;;;5072029;28;20041;-65
2022/11/20 01:09:12;;;;;;;59.83;34.58;;;-0.90;99.90;;;;;;5072650;28;20440;-65
2022/11/20 01:11:40;;;;;;;53.83;31.80;;;-0.90;99.90;;;;;;5071540;28;20059;-65
2022/11/20 01:14:09;;;;;;;52.63;31.80;;;-0.80;99.90;;;;;;5070408;28;20325;-66
2022/11/20 01:16:48;;;;;;;52.88;32.15;;;-0.80;99.90;;;;;;5068730;28;20425;-65
2022/11/20 01:19:14;;;;;;;;;;;-0.80;99.90;;;;;;5071092;28;20098;-65
2022/11/20 01:21:42;;;;;;;49.95;31.35;;;-0.80;99.90;;;;;;5069580;28;19931;-65
2022/11/20 01:24:11;;;;;;;52.95;32.25;;;-0.80;99.90;;;;;;5071112;28;20525;-65
2022/11/20 01:26:40;;;;;;;45.67;30.50;;;-0.80;99.90;;;;;;5069600;28;20528;-65
2022/11/20 01:29:07;;;;;;;56.83;33.95;;;-0.70;99.90;;;;;;5069178;28;20041;-65
2022/11/20 01:31:35;;;;;;;57.50;32.60;;;-0.70;99.90;;;;;;5067988;28;20041;-65
2022/11/20 01:34:04;;;;;;;51.13;32.08;;;-0.70;99.90;;;;;;5069995;28;20064;-65
2022/11/20 01:36:31;;;;;;;49.55;31.60;;;-0.70;99.90;;;;;;5069296;28;20411;-65
2022/11/20 01:38:59;;;;;;;50.65;31.20;;;-0.70;99.90;;;;;;5068771;28;20040;-65
2022/11/20 01:44:14;;;;;;;56.30;33.60;;;-0.60;99.90;;;;;;5072084;28;20118;-65
2022/11/20 01:46:50;;;;;;;55.03;31.60;;;-0.60;99.90;;;;;;5069576;28;20519;-65
2022/11/20 01:49:21;;;;;;;46.78;31.08;;;-0.60;99.90;;;;;;5079851;28;20070;-65
2022/11/20 01:51:56;;;;;;;52.20;33.53;;;-0.60;99.90;;;;;;5071002;28;20425;-65
2022/11/20 01:54:27;;;;;;;53.78;30.65;;;-0.60;99.90;;;;;;5066133;28;20115;-65
2022/11/20 01:56:57;;;;;;;50.90;32.38;;;-0.60;99.90;;;;;;5061557;28;20119;-65
2022/11/20 01:59:24;;;;;;;49.25;32.25;;;-0.50;99.90;;;;;;5066201;28;20044;-65
2022/11/20 02:01:50;;;;;;;46.55;30.95;;;-0.50;99.90;;;;;;5068556;28;20080;-66
2022/11/20 02:04:16;;;;;;;45.13;31.17;;;-0.50;99.90;;;;;;5068236;28;20075;-66
2022/11/20 02:06:47;;;;;;;50.88;31.10;;;-0.50;99.90;;;;;;5067580;28;20048;-65
2022/11/20 02:09:13;;;;;;;14.85;7.18;;;-0.50;99.90;;;;;;5068740;28;20554;-66
2022/11/20 02:11:39;;;;;;;47.65;31.45;;;-0.50;99.90;;;;;;5067767;28;20076;-65
2022/11/20 02:14:05;;;;;;;52.05;31.92;;;-0.50;99.90;;;;;;5066004;28;20075;-66
2022/11/20 02:16:35;;;;;;;51.38;30.88;;;-0.50;99.90;;;;;;5067697;28;20086;-65
2022/11/20 02:19:03;;;;;;;48.17;31.25;;;-0.50;99.90;;;;;;5067389;28;20079;-66
2022/11/20 02:21:59;;;;;;;16.33;8.77;;;-0.40;99.90;;;;;;5067588;28;20386;-65
2022/11/20 02:24:26;;;;;;;21.23;10.35;;;-0.50;99.90;;;;;;5068574;28;20055;-66
2022/11/20 02:27:13;;;;;;;45.42;29.77;;;-0.50;99.90;;;;;;5066881;28;20114;-66
2022/11/20 02:29:47;;;;;;;52.78;32.22;;;-0.50;99.90;;;;;;5052964;28;20053;-66
2022/11/20 02:32:31;;;;;;;50.88;30.23;;;-0.40;99.90;;;;;;5058222;28;20143;-65
2022/11/20 02:34:57;;;;;;;48.38;31.35;;;-0.40;99.90;;;;;;5057342;28;20044;-65
2022/11/20 02:37:32;;;;;;;49.40;32.88;;;-0.40;99.90;;;;;;5067347;28;20550;-66
2022/11/20 02:39:58;;;;;;;46.47;30.35;;;-0.40;99.90;;;;;;5053990;28;20043;-65
2022/11/20 02:42:23;;;;;;;55.53;32.72;;;-0.40;99.90;;;;;;5067798;28;20425;-65
2022/11/20 02:44:49;;;;;;;45.03;30.27;;;-0.30;99.90;;;;;;5066816;28;20810;-65
2022/11/20 02:47:15;;;;;;;57.80;33.78;;;-0.30;99.90;;;;;;5065626;28;20191;-66
2022/11/20 02:49:40;;;;;;;46.30;31.13;;;-0.30;99.90;;;;;;5065736;28;20048;-65
2022/11/20 02:52:06;;;;;;;47.65;30.63;;;-0.30;99.90;;;;;;5067306;28;20036;-66
2022/11/20 02:54:31;;;;;;;49.95;32.60;;;-0.30;99.90;;;;;;5066711;28;20044;-65
2022/11/20 02:56:57;;;;;;;19.35;7.90;;;-0.30;99.90;;;;;;5064723;28;20462;-66
2022/11/20 02:59:23;;;;;;;53.50;32.42;;;-0.30;99.90;;;;;;5067268;28;20040;-66
2022/11/20 03:01:48;;;;;;;42.30;29.60;;;-0.30;99.90;;;;;;5066041;28;20083;-66
2022/11/20 03:04:14;;;;;;;42.22;30.75;;;-0.30;99.90;;;;;;5064740;28;20076;-65
2022/11/20 03:06:40;;;;;;;43.40;31.42;;;-0.20;99.90;;;;;;5068361;28;20852;-66
2022/11/20 03:09:05;;;;;;;47.58;31.52;;;-0.20;99.90;;;;;;5072253;28;20044;-65
2022/11/20 03:11:31;;;;;;;21.55;9.68;;;-0.20;99.90;;;;;;5074381;28;20037;-66
2022/11/20 03:13:57;;;;;;;45.47;31.92;;;-0.20;99.90;;;;;;5075496;28;20573;-65
2022/11/20 03:16:23;;;;;;;48.25;30.60;;;-0.20;99.90;;;;;;5066408;28;20041;-65
2022/11/20 03:18:51;;;;;;;52.08;33.03;;;-0.20;99.90;;;;;;5066603;28;20072;-65
2022/11/20 03:21:17;;;;;;;46.75;31.25;;;-0.20;99.90;;;;;;5066226;28;20171;-66
2022/11/20 03:23:43;;;;;;;44.35;29.83;;;-0.20;99.90;;;;;;5076336;28;20119;-65
2022/11/20 03:26:10;;;;;;;47.00;31.67;;;-0.10;99.90;;;;;;5071716;28;20039;-66
2022/11/20 03:28:36;;;;;;;45.95;31.15;;;-0.10;99.90;;;;;;5073430;28;20135;-66
2022/11/20 03:31:14;;;;;;;45.63;31.05;;;-0.10;99.90;;;;;;5066947;28;20468;-65
2022/11/20 03:33:41;;;;;;;21.92;10.80;;;-0.10;99.90;;;;;;5074056;28;20520;-65
2022/11/20 03:36:10;;;;;;;51.95;32.72;;;-0.20;99.90;;;;;;5064137;28;20055;-65
2022/11/20 03:38:36;;;;;;;45.85;31.67;;;-0.10;99.90;;;;;;5072633;28;20102;-65
2022/11/20 03:41:05;;;;;;;45.85;32.40;;;-0.10;99.90;;;;;;5071530;28;20028;-65
2022/11/20 03:43:32;;;;;;;41.80;30.45;;;-0.10;99.90;;;;;;5071902;28;20555;-65
2022/11/20 03:45:57;;;;;;;23.58;12.55;;;-0.10;99.90;;;;;;5070908;28;20123;-66
2022/11/20 03:48:23;;;;;;;43.78;29.92;;;-0.10;99.90;;;;;;5075252;28;20647;-66
2022/11/20 03:50:50;;;;;;;55.70;32.50;;;-0.10;99.90;;;;;;5076781;28;20040;-65
2022/11/20 03:53:16;;;;;;;45.83;31.33;;;-0.10;99.90;;;;;;5070008;28;20048;-66
2022/11/20 03:55:42;;;;;;;44.95;30.23;;;0.00;99.90;;;;;;5069977;28;20151;-66
2022/11/20 03:58:08;;;;;;;50.10;31.23;;;0.00;99.90;;;;;;5070146;28;20059;-65
2022/11/20 04:00:34;;;;;;;45.17;30.25;;;0.00;99.90;;;;;;5066884;28;20178;-66
2022/11/20 04:03:00;;;;;;;46.35;31.67;;;0.00;99.90;;;;;;5059322;28;20774;-65
2022/11/20 04:05:26;;;;;;;54.25;33.00;;;0.00;99.90;;;;;;5062773;28;20076;-66
2022/11/20 04:07:51;;;;;;;48.85;31.25;;;0.00;99.90;;;;;;5061886;28;20075;-65
2022/11/20 04:10:17;;;;;;;44.55;30.33;;;0.00;99.90;;;;;;5068516;28;20044;-65
2022/11/20 04:12:43;;;;;;;50.85;33.20;;;0.00;99.90;;;;;;5069139;28;20593;-66
2022/11/20 04:15:09;;;;;;;48.38;31.90;;;0.00;99.90;;;;;;5070175;28;20082;-66
2022/11/20 04:17:35;;;;;;;48.40;33.17;;;0.00;99.90;;;;;;5070081;28;20071;-65
2022/11/20 04:20:02;;;;;;;43.97;30.30;;;0.00;99.90;;;;;;5069725;28;20055;-65
2022/11/20 04:22:28;;;;;;;47.38;32.55;;;0.00;99.90;;;;;;5069263;28;20052;-65
2022/11/20 04:24:53;;;;;;;44.63;31.90;;;0.00;99.90;;;;;;5065841;28;20043;-66
2022/11/20 04:27:19;;;;;;;49.22;31.95;;;0.00;99.90;;;;;;5067069;28;20058;-66
2022/11/20 04:29:44;;;;;;;50.80;32.67;;;0.00;99.90;;;;;;5070087;28;20167;-66
2022/11/20 04:32:10;;;;;;;49.50;31.95;;;0.00;99.90;;;;;;5055517;28;20068;-65
2022/11/20 04:34:36;;;;;;;50.85;32.03;;;0.10;99.90;;;;;;5068732;28;20066;-66
2022/11/20 04:37:01;;;;;;;37.22;29.17;;;0.10;99.90;;;;;;5068976;28;20035;-65
2022/11/20 04:39:27;;;;;;;54.55;34.75;;;0.10;99.90;;;;;;5069115;28;20116;-65
2022/11/20 04:42:28;;;;;;;44.13;30.85;;;0.10;99.90;;;;;;5067387;28;20037;-66
2022/11/20 04:44:38;;;;;;;44.78;30.30;;;0.10;99.90;;;;;;5077776;28;20639;-65
2022/11/20 04:47:04;;;;;;;44.25;31.52;;;0.10;99.90;;;;;;5071424;28;20047;-66
2022/11/20 04:49:31;;;;;;;39.60;28.70;;;0.10;99.90;;;;;;5054045;28;20047;-66
2022/11/20 04:51:57;;;;;;;53.78;31.63;;;0.10;99.90;;;;;;5069108;28;20076;-66
2022/11/20 04:54:23;;;;;;;47.40;30.67;;;0.10;99.90;;;;;;5067840;28;20163;-65
2022/11/20 04:56:49;;;;;;;44.72;31.40;;;0.10;99.90;;;;;;5069363;28;20472;-65
2022/11/20 04:59:14;;;;;;;44.72;30.27;;;0.10;99.90;;;;;;5070296;28;21073;-66
2022/11/20 05:01:40;;;;;;;42.70;29.65;;;0.20;99.90;;;;;;5058432;28;20045;-66
2022/11/20 05:04:06;;;;;;;48.30;30.48;;;0.20;99.90;;;;;;5068909;28;20075;-66
2022/11/20 05:06:33;;;;;;;45.05;29.35;;;0.20;99.90;;;;;;5054171;28;20123;-65
2022/11/20 05:09:00;;;;;;;17.50;10.53;;;0.20;99.90;;;;;;5069522;28;20048;-66
2022/11/20 05:11:28;;;;;;;43.00;29.52;;;0.20;99.90;;;;;;5068966;28;20044;-65
2022/11/20 05:13:55;;;;;;;47.20;30.90;;;0.20;99.90;;;;;;5078461;28;20468;-65
2022/11/20 05:16:23;;;;;;;47.55;29.02;;;0.20;99.90;;;;;;5072365;28;20062;-65
2022/11/20 05:18:49;;;;;;;45.85;30.05;;;0.20;99.90;;;;;;5064692;28;20421;-65
2022/11/20 05:21:16;;;;;;;21.65;7.63;;;0.20;99.90;;;;;;5065938;28;20082;-65
2022/11/20 05:23:43;;;;;;;41.40;29.33;;;0.20;99.90;;;;;;5061446;28;20040;-65
2022/11/20 05:26:15;;;;;;;47.30;30.38;;;0.20;99.90;;;;;;5063922;28;20070;-66
2022/11/20 05:28:40;;;;;;;46.28;29.70;;;0.20;99.90;;;;;;5069217;28;20458;-65
2022/11/20 05:31:07;;;;;;;21.33;7.88;;;0.20;99.90;;;;;;5077784;28;20119;-66
2022/11/20 05:33:34;;;;;;;45.72;29.23;;;0.20;99.90;;;;;;5064061;28;20123;-66
2022/11/20 05:36:01;;;;;;;44.58;30.52;;;0.20;99.90;;;;;;5086149;28;20040;-66
2022/11/20 05:38:26;;;;;;;41.63;29.42;;;0.20;99.90;;;;;;5083995;28;20044;-66
2022/11/20 05:40:52;;;;;;;46.00;31.77;;;0.20;99.90;;;;;;5085233;28;20541;-65
2022/11/20 05:43:19;;;;;;;17.55;7.78;;;0.20;99.90;;;;;;5078924;28;20062;-65
2022/11/20 05:45:54;;;;;;;49.13;30.00;;;0.20;99.90;;;;;;5083693;28;20552;-66
2022/11/20 05:48:21;;;;;;;46.35;32.08;;;0.20;99.90;;;;;;5075542;28;20040;-66
2022/11/20 05:50:47;;;;;;;17.58;9.02;;;0.20;99.90;;;;;;5060923;28;20041;-65
2022/11/20 05:53:13;;;;;;;44.53;28.83;;;0.20;99.90;;;;;;5071594;28;20057;-66
2022/11/20 05:55:39;;;;;;;42.13;29.55;;;0.20;99.90;;;;;;5070564;28;20086;-66
2022/11/20 05:58:04;;;;;;;45.45;29.88;;;0.30;99.90;;;;;;5067604;28;20379;-66
2022/11/20 06:00:30;;;;;;;39.75;29.73;;;0.30;99.90;;;;;;5067101;28;20040;-66
2022/11/20 06:02:56;;;;;;;39.83;29.70;;;0.30;99.90;;;;;;5079271;28;20050;-66
2022/11/20 06:05:22;;;;;;;43.97;28.90;;;0.30;99.90;;;;;;5062029;28;20045;-66
2022/11/20 06:07:47;;;;;;;46.35;30.75;;;0.30;99.90;;;;;;5063127;28;20048;-65
2022/11/20 06:10:13;;;;;;;48.33;31.20;;;0.30;99.90;;;;;;5066459;28;20048;-66
2022/11/20 06:12:38;;;;;;;38.70;28.13;;;0.30;99.90;;;;;;5080585;28;20150;-66
2022/11/20 06:15:05;;;;;;;44.53;30.02;;;0.30;99.90;;;;;;5067872;28;20047;-66
2022/11/20 06:17:31;;;;;;;21.45;9.75;;;0.30;99.90;;;;;;5066057;28;20040;-66
2022/11/20 06:19:56;;;;;;;17.98;7.80;;;0.30;99.90;;;;;;5067351;28;20040;-66
2022/11/20 06:22:22;;;;;;;46.28;29.92;;;0.30;99.90;;;;;;5064737;28;20051;-66
2022/11/20 06:24:48;;;;;;;40.22;29.92;;;0.30;99.90;;;;;;5064194;28;20086;-66
2022/11/20 06:27:13;;;;;;;43.08;29.58;;;0.30;99.90;;;;;;5075207;28;20486;-66
2022/11/20 06:29:40;;;;;;;49.47;30.20;;;0.30;99.90;;;;;;5080635;28;20116;-67
2022/11/20 06:32:06;;;;;;;45.88;30.73;;;0.30;99.90;;;;;;5074116;28;20127;-66
2022/11/20 06:34:31;;;;;;;24.45;8.70;;;0.30;99.90;;;;;;5070561;28;20468;-66
2022/11/20 06:36:57;;;;;;;43.85;30.95;;;0.30;99.90;;;;;;5072315;28;20875;-66
2022/11/20 06:39:22;;;;;;;28.70;11.20;;;0.30;99.90;;;;;;5069699;28;20086;-66
2022/11/20 06:41:48;;;;;;;49.85;31.95;;;0.30;99.90;;;;;;5065489;28;20036;-66
2022/11/20 06:44:14;;;;;;;18.50;9.80;;;0.30;99.90;;;;;;5069239;28;20041;-66
2022/11/20 06:46:39;;;;;;;48.30;31.98;;;0.30;99.90;;;;;;5069376;28;20497;-66
2022/11/20 06:49:06;;;;;;;49.92;33.80;;;0.30;99.90;;;;;;5069752;28;20045;-66
2022/11/20 06:51:32;;;;;;;47.60;32.58;;;0.30;99.90;;;;;;5069942;28;20066;-66
2022/11/20 06:53:57;;;;;;;49.65;34.17;;;0.30;99.90;;;;;;5052509;28;20169;-66
2022/11/20 06:56:23;;;;;;;24.83;9.52;;;0.40;99.90;;;;;;5067574;28;20600;-66
2022/11/20 06:58:48;;;;;;;48.53;32.75;;;0.30;99.90;;;;;;5077672;28;20051;-66
2022/11/20 07:01:15;;;;;;;46.75;31.55;;;0.30;99.90;;;;;;5069574;28;20041;-66
2022/11/20 07:03:42;;;;;;;42.67;31.40;;;0.30;99.90;;;;;;5069464;28;20047;-66
2022/11/20 07:06:08;;;;;;;44.13;31.27;;;0.40;99.90;;;;;;5056457;28;20045;-66
2022/11/20 07:08:35;;;;;;;48.72;31.90;;;0.30;99.90;;;;;;5065951;28;20045;-66
2022/11/20 07:11:04;;;;;;;47.53;31.75;;;0.30;99.90;;;;;;5067456;28;20192;-66
2022/11/20 07:13:30;;;;;;;58.80;36.50;;;0.40;99.90;;;;;;5076451;28;20158;-66
2022/11/20 07:16:04;;;;;;;30.27;14.73;;;0.40;99.90;;;;;;5063205;28;20059;-66
2022/11/20 07:18:29;;;;;;;68.70;43.85;;;0.40;99.90;;;;;;5066827;28;20044;-66
2022/11/20 07:20:55;;;;;;;69.07;44.85;;;0.40;99.90;;;;;;5067049;28;20058;-66
2022/11/20 07:23:21;;;;;;;65.10;43.78;;;0.40;99.90;;;;;;5071113;28;20911;-66
2022/11/20 07:25:47;;;;;;;59.58;39.95;;;0.40;99.90;;;;;;5070032;28;20050;-66
2022/11/20 07:28:13;;;;;;;61.03;40.38;;;0.40;99.90;;;;;;5071402;28;20052;-66
2022/11/20 07:30:39;;;;;;;48.72;33.72;;;0.40;99.90;;;;;;5076205;28;20055;-66
2022/11/20 07:33:04;;;;;;;47.40;32.88;;;0.40;99.90;;;;;;5065298;28;20041;-66
2022/11/20 07:35:30;;;;;;;42.22;31.88;;;0.40;99.90;;;;;;5064262;28;20039;-66
2022/11/20 07:37:55;;;;;;;46.28;30.33;;;0.40;99.90;;;;;;5071754;28;20120;-66
2022/11/20 07:40:21;;;;;;;45.47;31.85;;;0.50;99.90;;;;;;5070321;28;20033;-66
2022/11/20 07:42:48;;;;;;;43.67;27.60;;;0.50;99.90;;;;;;5068823;28;20089;-66
2022/11/20 07:45:14;;;;;;;42.25;27.90;;;0.50;99.90;;;;;;5081107;28;20556;-66
2022/11/20 07:47:40;;;;;;;42.20;27.85;;;0.50;99.90;;;;;;5070969;28;20110;-67
2022/11/20 07:50:06;;;;;;;41.80;27.42;;;0.50;99.90;;;;;;5068254;28;20705;-67
2022/11/20 07:52:31;;;;;;;43.63;28.48;;;0.50;99.90;;;;;;5070211;28;20810;-67
2022/11/20 07:54:57;;;;;;;44.40;27.40;;;0.50;99.90;;;;;;5076475;28;20514;-66
2022/11/20 07:57:22;;;;;;;41.67;27.27;;;0.50;99.90;;;;;;5071304;28;20045;-67
2022/11/20 07:59:48;;;;;;;48.97;29.60;;;0.50;99.90;;;;;;5062910;28;20036;-67
2022/11/20 08:02:13;;;;;;;19.65;11.73;;;0.50;99.90;;;;;;5074505;28;20052;-66
2022/11/20 08:04:39;;;;;;;45.42;29.38;;;0.50;99.90;;;;;;5068656;28;20047;-66
2022/11/20 08:07:05;;;;;;;40.92;27.45;;;0.50;99.90;;;;;;5069891;28;20083;-66
2022/11/20 08:09:30;;;;;;;47.78;30.08;;;0.50;99.90;;;;;;5068384;28;20049;-66
2022/11/20 08:14:40;;;;;;;46.80;29.25;;;0.60;99.90;;;;;;5068422;28;20092;-66
2022/11/20 08:17:06;;;;;;;38.00;27.23;;;0.60;99.90;;;;;;5075517;28;20103;-66
2022/11/20 08:19:32;;;;;;;41.55;26.60;;;0.60;99.90;;;;;;5079819;28;20453;-66
2022/11/20 08:21:58;;;;;;;43.13;29.25;;;0.60;99.90;;;;;;5069509;28;20093;-67
2022/11/20 08:24:26;;;;;;;44.88;27.90;;;0.60;99.90;;;;;;5068799;28;20068;-66
2022/11/20 08:26:52;;;;;;;44.00;27.48;;;0.70;99.90;;;;;;5073911;28;20446;-66
2022/11/20 08:29:17;;;;;;;35.17;25.25;;;0.70;99.90;;;;;;5077792;28;20135;-67
2022/11/20 08:31:43;;;;;;;41.58;26.52;;;0.70;99.90;;;;;;5066165;28;20167;-66
2022/11/20 08:34:09;;;;;;;38.30;27.80;;;0.70;99.90;;;;;;5074145;28;20036;-67
2022/11/20 08:36:35;;;;;;;24.02;11.88;;;0.70;99.90;;;;;;5071636;28;20559;-66
2022/11/20 08:39:00;;;;;;;23.45;10.68;;;0.70;99.90;;;;;;5064835;28;20523;-67
2022/11/20 08:41:31;;;;;;;27.17;11.80;;;0.70;99.90;;;;;;5068672;28;20098;-66
2022/11/20 08:44:04;;;;;;;43.25;28.88;;;0.70;99.90;;;;;;5075400;28;20044;-66
2022/11/20 08:46:39;;;;;;;41.22;29.40;;;0.80;99.90;;;;;;5073258;28;20048;-67
2022/11/20 08:49:10;;;;;;;42.63;27.85;;;0.80;99.90;;;;;;5077034;28;20082;-67
2022/11/20 08:51:37;;;;;;;23.40;10.13;;;0.80;99.90;;;;;;5074978;28;20055;-67
2022/11/20 08:54:03;;;;;;;39.38;27.23;;;0.80;99.90;;;;;;5069188;28;20519;-67
2022/11/20 08:56:29;;;;;;;38.28;27.02;;;0.80;99.90;;;;;;5076685;28;20119;-67
2022/11/20 08:58:55;;;;;;;41.95;26.70;;;0.90;99.90;;;;;;5074215;28;20162;-67
2022/11/20 09:01:22;;;;;;;37.00;25.48;;;0.90;99.90;;;;;;5075737;28;20055;-67
2022/11/20 09:03:49;;;;;;;37.42;26.08;;;1.00;99.90;;;;;;5081900;28;20119;-67
2022/11/20 09:06:15;;;;;;;44.10;25.48;;;1.00;99.90;;;;;;5069060;28;20045;-67
2022/11/20 09:08:41;;;;;;;41.13;27.08;;;1.00;99.90;;;;;;5068099;28;20413;-67
2022/11/20 09:11:07;;;;;;;38.75;24.23;;;1.00;99.90;;;;;;5068407;28;20536;-67
2022/11/20 09:13:36;;;;;;;39.63;25.02;;;1.00;99.90;;;;;;5065101;28;20086;-67
2022/11/20 09:16:05;;;;;;;37.20;24.10;;;1.00;99.90;;;;;;5065070;28;20041;-68
2022/11/20 09:18:32;;;;;;;43.53;25.02;;;1.00;99.90;;;;;;5062317;28;20045;-67
2022/11/20 09:21:02;;;;;;;36.13;25.10;;;1.00;99.90;;;;;;5070307;28;20094;-68
2022/11/20 09:23:32;;;;;;;36.40;23.83;;;1.10;99.90;;;;;;5058875;28;20048;-68
2022/11/20 09:25:59;;;;;;;37.42;24.58;;;1.10;99.90;;;;;;5067431;28;20044;-68
2022/11/20 09:28:25;;;;;;;36.47;25.83;;;1.10;99.90;;;;;;5062242;28;20053;-68
2022/11/20 09:30:51;;;;;;;24.83;12.43;;;1.10;99.90;;;;;;5055912;28;20060;-68
2022/11/20 09:33:17;;;;;;;24.77;9.25;;;1.10;99.90;;;;;;5074394;28;20048;-68
2022/11/20 09:35:44;;;;;;;32.80;23.02;;;1.10;99.90;;;;;;5065181;28;20432;-69
2022/11/20 09:38:10;;;;;;;35.40;24.63;;;1.10;99.90;;;;;;5055911;28;20406;-68
2022/11/20 09:40:43;;;;;;;25.30;12.73;;;1.20;99.90;;;;;;5059641;28;20048;-69
2022/11/20 09:43:20;;;;;;;37.58;24.25;;;1.20;99.90;;;;;;5057071;28;20054;-69
2022/11/20 09:46:04;;;;;;;41.65;25.38;;;1.20;99.90;;;;;;5062241;28;20037;-69
2022/11/20 09:48:38;;;;;;;38.95;25.95;;;1.20;99.90;;;;;;5069947;28;20056;-69
2022/11/20 09:51:28;;;;;;;37.38;24.63;;;1.30;99.90;;;;;;5070942;28;20105;-69
2022/11/20 09:54:22;;;;;;;34.13;23.08;;;1.30;99.90;;;;;;5067774;28;20476;-69
2022/11/20 09:56:55;;;;;;;36.58;24.35;;;1.30;99.90;;;;;;5069790;28;20037;-69
2022/11/20 09:59:31;;;;;;;37.90;25.00;;;1.40;99.90;;;;;;5071082;28;20036;-69
2022/11/20 10:01:58;;;;;;;39.95;25.13;;;1.40;99.90;;;;;;5070641;28;20436;-69
2022/11/20 10:04:24;;;;;;;34.28;23.80;;;1.40;99.90;;;;;;5067598;28;20044;-69
2022/11/20 10:06:56;;;;;;;40.05;24.60;;;1.50;99.90;;;;;;5058977;28;20036;-69
2022/11/20 10:09:34;;;;;;;19.40;9.90;;;1.50;99.90;;;;;;5058960;28;20045;-70
2022/11/20 10:12:02;;;;;;;32.45;23.70;;;1.50;99.90;;;;;;5062100;28;20494;-70
2022/11/20 10:14:56;;;;;;;37.22;25.17;;;1.50;99.90;;;;;;5048726;28;20063;-70
2022/11/20 10:17:40;;;;;;;34.08;24.17;;;1.60;99.90;;;;;;5074137;28;20525;-70
2022/11/20 10:20:44;;;;;;;40.33;24.13;;;1.60;99.90;;;;;;5061425;28;20127;-70
2022/11/20 10:23:16;;;;;;;19.52;10.20;;;1.70;99.90;;;;;;5056078;28;20044;-69
2022/11/20 10:25:50;;;;;;;35.17;22.02;;;1.60;99.90;;;;;;5076139;28;20141;-70
2022/11/20 10:28:33;;;;;;;31.20;23.45;;;1.70;99.90;;;;;;5066137;28;20056;-70
2022/11/20 10:31:12;;;;;;;21.15;11.63;;;1.80;99.90;;;;;;5066036;28;20464;-69
2022/11/20 10:33:44;;;;;;;21.42;8.88;;;1.80;99.90;;;;;;5067110;28;20045;-69
2022/11/20 10:36:23;;;;;;;35.97;24.33;;;1.90;99.90;;;;;;5068070;28;20155;-68
2022/11/20 10:39:01;;;;;;;33.22;22.83;;;1.90;99.90;;;;;;5066989;28;20044;-69
2022/11/20 10:41:31;;;;;;;35.83;24.60;;;2.00;99.90;;;;;;5067260;28;20088;-69
2022/11/20 10:47:00;;;;;;;31.60;21.42;;;2.20;99.90;;;;;;5053268;28;20084;-68
2022/11/20 10:49:55;;;;;;;33.33;22.38;;;2.30;99.90;;;;;;5063803;28;20044;-70
2022/11/20 10:52:57;;;;;;;30.33;19.85;;;2.40;99.90;;;;;;5063699;28;20048;-68
2022/11/20 10:55:28;;;;;;;33.70;21.25;;;2.40;99.90;;;;;;5063534;28;20044;-69
2022/11/20 10:58:21;;;;;;;30.38;21.13;;;2.50;99.90;;;;;;5070173;28;20501;-69
2022/11/20 11:00:47;;;;;;;15.98;8.45;;;2.50;99.90;;;;;;5049022;28;20102;-69
2022/11/20 11:03:30;;;;;;;26.38;18.35;;;2.60;99.90;;;;;;5066447;28;20064;-69
2022/11/20 11:06:06;;;;;;;30.80;20.42;;;2.60;99.90;;;;;;5069247;28;20052;-69
2022/11/20 11:08:37;;;;;;;34.30;21.98;;;2.70;99.90;;;;;;5077686;28;20059;-69
2022/11/20 11:11:14;;;;;;;30.27;20.65;;;2.70;99.90;;;;;;5077880;28;20119;-69
2022/11/20 11:13:40;;;;;;;31.20;22.02;;;2.80;99.90;;;;;;5078853;28;20052;-69
2022/11/20 11:16:05;;;;;;;31.08;21.63;;;2.80;99.90;;;;;;5081697;28;20044;-69
2022/11/20 11:18:34;;;;;;;30.23;20.73;;;2.80;99.90;;;;;;5076539;28;20049;-69
2022/11/20 11:21:01;;;;;;;25.77;18.40;;;2.80;99.90;;;;;;5080280;28;20401;-69
2022/11/20 11:23:42;;;;;;;14.15;8.20;;;2.90;99.90;;;;;;5073929;28;20051;-69
2022/11/20 11:26:21;;;;;;;31.10;17.73;;;2.80;99.90;;;;;;5070853;28;20055;-69
2022/11/20 11:29:04;;;;;;;25.52;17.60;;;2.80;99.90;;;;;;5068326;28;20091;-69
2022/11/20 11:31:31;;;;;;;26.30;18.83;;;2.90;99.90;;;;;;5066460;28;20501;-69
2022/11/20 11:34:11;;;;;;;27.50;19.10;;;2.90;99.90;;;;;;5067783;28;20091;-69
2022/11/20 11:36:37;;;;;;;27.08;19.85;;;2.90;99.90;;;;;;5065893;28;20307;-69
2022/11/20 11:39:05;;;;;;;20.95;8.35;;;2.90;99.90;;;;;;5072090;28;20040;-69
2022/11/20 11:41:36;;;;;;;30.67;18.95;;;2.90;99.90;;;;;;5076200;28;20071;-70
2022/11/20 11:47:18;;;;;;;24.42;16.67;;;3.00;99.90;;;;;;5068296;28;20098;-68
2022/11/20 11:49:44;;;;;;;24.65;15.77;;;3.00;99.90;;;;;;5072148;28;20049;-69
2022/11/20 11:52:19;;;;;;;16.02;9.00;;;3.00;99.90;;;;;;5074126;28;20043;-69
2022/11/20 11:54:57;;;;;;;22.23;16.25;;;3.00;99.90;;;;;;5074584;28;20045;-69
2022/11/20 11:57:49;;;;;;;15.73;13.60;;;3.00;99.90;;;;;;5062872;28;20045;-69
2022/11/20 12:00:18;;;;;;;44.17;25.70;;;3.00;99.90;;;;;;5070480;28;20547;-68
2022/11/20 12:02:50;;;;;;;46.38;23.75;;;3.00;99.90;;;;;;5073059;28;20049;-68
2022/11/20 12:05:39;;;;;;;45.80;25.27;;;3.00;99.90;;;;;;5075308;28;20201;-68
2022/11/20 12:08:21;;;;;;;26.00;18.95;;;3.00;99.90;;;;;;5072439;28;20127;-68
2022/11/20 12:11:11;;;;;;;23.20;17.65;;;3.00;99.90;;;;;;5063526;28;20523;-68
2022/11/20 12:13:44;;;;;;;22.38;16.80;;;3.10;99.90;;;;;;5064332;28;20036;-69
2022/11/20 12:16:13;;;;;;;20.25;14.10;;;3.00;99.90;;;;;;5078134;28;20045;-68
2022/11/20 12:18:40;;;;;;;23.95;15.93;;;3.10;99.90;;;;;;5063437;28;20046;-68
2022/11/20 12:21:17;;;;;;;19.20;13.55;;;3.10;99.90;;;;;;5065948;28;20041;-68
2022/11/20 12:24:04;;;;;;;22.08;15.15;;;3.10;99.90;;;;;;5062185;28;20084;-68
2022/11/20 12:27:05;;;;;;;13.35;6.88;;;3.00;99.90;;;;;;5067068;28;20052;-68
2022/11/20 12:30:01;;;;;;;23.65;15.43;;;3.00;99.90;;;;;;5069166;28;20056;-68
2022/11/20 12:32:53;;;;;;;24.30;16.38;;;3.00;99.90;;;;;;5065608;28;20055;-68
2022/11/20 12:35:51;;;;;;;24.35;16.02;;;3.00;99.90;;;;;;5071103;28;20049;-68
2022/11/20 12:38:38;;;;;;;22.50;15.85;;;3.10;99.90;;;;;;5068832;28;20036;-69
2022/11/20 12:47:18;;;;;;;24.17;18.17;;;3.20;99.90;;;;;;5055355;28;20403;-68
2022/11/20 12:50:05;;;;;;;22.38;17.20;;;3.20;99.90;;;;;;5069464;28;20071;-68
2022/11/20 12:52:48;;;;;;;21.90;17.30;;;3.30;99.90;;;;;;5067118;28;20044;-68
2022/11/20 12:55:35;;;;;;;30.95;18.63;;;3.30;99.90;;;;;;5065488;28;20123;-68
2022/11/20 12:58:09;;;;;;;30.90;19.00;;;3.30;99.90;;;;;;5065166;28;20097;-68
2022/11/20 13:00:41;;;;;;;26.95;18.17;;;3.40;99.90;;;;;;5083990;28;20159;-68
2022/11/20 13:03:36;;;;;;;27.33;19.52;;;3.40;99.90;;;;;;5084379;28;20041;-68
2022/11/20 13:06:20;;;;;;;28.08;18.92;;;3.40;99.90;;;;;;5066201;28;20374;-68